sensor_id;sensor_type;location;lat;lon;timestamp;pressure;altitude;pressure_sealevel;temperature;humidity
12468;BME280;57850;52.922;6.256;2022-12-18T00:01:57;102920.97;;;-1.45;nan
12468;BME280;57850;52.922;6.256;2022-12-18T00:04:25;102908.72;;;-1.88;nan
12468;BME280;57850;52.922;6.256;2022-12-18T00:06:52;102903.91;;;-1.82;nan
12468;BME280;57850;52.922;6.256;2022-12-18T00:09:19;102896.31;;;-1.80;nan
12468;BME280;57850;52.922;6.256;2022-12-18T00:11:47;102883.13;;;-1.88;nan
12468;BME280;57850;52.922;6.256;2022-12-18T00:14:14;102879.03;;;-1.84;nan
12468;BME280;57850;52.922;6.256;2022-12-18T00:16:43;102861.69;;;-1.91;nan
12468;BME280;57850;52.922;6.256;2022-12-18T00:19:11;102857.31;;;-2.11;nan
12468;BME280;57850;52.922;6.256;2022-12-18T00:21:37;102847.13;;;-1.92;nan
12468;BME280;57850;52.922;6.256;2022-12-18T00:24:06;102844.53;;;-1.75;nan
12468;BME280;57850;52.922;6.256;2022-12-18T00:26:34;102840.78;;;-2.00;nan
12468;BME280;57850;52.922;6.256;2022-12-18T00:29:05;102825.38;;;-1.65;nan
12468;BME280;57850;52.922;6.256;2022-12-18T00:31:32;102841.41;;;-1.87;nan
12468;BME280;57850;52.922;6.256;2022-12-18T00:33:58;102836.53;;;-1.82;nan
12468;BME280;57850;52.922;6.256;2022-12-18T00:36:27;102846.16;;;-1.77;nan
12468;BME280;57850;52.922;6.256;2022-12-18T00:38:54;102840.50;;;-1.89;nan
12468;BME280;57850;52.922;6.256;2022-12-18T00:41:22;102835.22;;;-2.09;nan
12468;BME280;57850;52.922;6.256;2022-12-18T00:44:10;102846.72;;;-2.01;nan
12468;BME280;57850;52.922;6.256;2022-12-18T00:46:36;102839.56;;;-1.72;nan
12468;BME280;57850;52.922;6.256;2022-12-18T00:49:04;102845.66;;;-1.70;nan
12468;BME280;57850;52.922;6.256;2022-12-18T00:51:30;102853.31;;;-1.70;nan
12468;BME280;57850;52.922;6.256;2022-12-18T00:53:57;102865.50;;;-1.64;nan
12468;BME280;57850;52.922;6.256;2022-12-18T00:56:24;102871.38;;;-1.84;nan
12468;BME280;57850;52.922;6.256;2022-12-18T00:58:50;102856.28;;;-2.15;nan
12468;BME280;57850;52.922;6.256;2022-12-18T01:01:18;102850.16;;;-2.01;nan
12468;BME280;57850;52.922;6.256;2022-12-18T01:03:45;102839.19;;;-1.98;nan
12468;BME280;57850;52.922;6.256;2022-12-18T01:06:15;102856.84;;;-2.03;nan
12468;BME280;57850;52.922;6.256;2022-12-18T01:08:42;102849.88;;;-1.88;nan
12468;BME280;57850;52.922;6.256;2022-12-18T01:11:10;102857.72;;;-1.85;nan
12468;BME280;57850;52.922;6.256;2022-12-18T01:13:38;102876.94;;;-1.93;nan
12468;BME280;57850;52.922;6.256;2022-12-18T01:16:04;102866.06;;;-2.06;nan
12468;BME280;57850;52.922;6.256;2022-12-18T01:18:32;102884.19;;;-2.02;nan
12468;BME280;57850;52.922;6.256;2022-12-18T01:20:59;102887.97;;;-2.29;nan
12468;BME280;57850;52.922;6.256;2022-12-18T01:23:26;102869.69;;;-2.19;nan
12468;BME280;57850;52.922;6.256;2022-12-18T01:25:52;102869.06;;;-2.15;nan
12468;BME280;57850;52.922;6.256;2022-12-18T01:28:19;102871.75;;;-2.12;nan
12468;BME280;57850;52.922;6.256;2022-12-18T01:30:46;102883.97;;;-2.24;nan
12468;BME280;57850;52.922;6.256;2022-12-18T01:33:14;102889.84;;;-2.25;nan
12468;BME280;57850;52.922;6.256;2022-12-18T01:35:43;102899.63;;;-2.34;nan
12468;BME280;57850;52.922;6.256;2022-12-18T01:38:09;102882.19;;;-2.43;nan
12468;BME280;57850;52.922;6.256;2022-12-18T01:40:36;102866.44;;;-2.17;nan
12468;BME280;57850;52.922;6.256;2022-12-18T01:43:03;102866.00;;;-2.08;nan
12468;BME280;57850;52.922;6.256;2022-12-18T01:45:31;102879.00;;;-1.86;nan
12468;BME280;57850;52.922;6.256;2022-12-18T01:47:59;102902.00;;;-1.86;nan
12468;BME280;57850;52.922;6.256;2022-12-18T01:50:31;102913.94;;;-2.04;nan
12468;BME280;57850;52.922;6.256;2022-12-18T01:53:03;102920.56;;;-2.07;nan
12468;BME280;57850;52.922;6.256;2022-12-18T01:55:36;102916.84;;;-1.96;nan
12468;BME280;57850;52.922;6.256;2022-12-18T01:58:04;102926.38;;;-2.28;nan
12468;BME280;57850;52.922;6.256;2022-12-18T02:00:31;102936.16;;;-2.19;nan
12468;BME280;57850;52.922;6.256;2022-12-18T02:02:57;102938.88;;;-2.16;nan
12468;BME280;57850;52.922;6.256;2022-12-18T02:05:31;102945.53;;;-2.20;nan
12468;BME280;57850;52.922;6.256;2022-12-18T02:08:08;102951.75;;;-2.14;nan
12468;BME280;57850;52.922;6.256;2022-12-18T02:10:43;102944.59;;;-2.38;nan
12468;BME280;57850;52.922;6.256;2022-12-18T02:13:18;102941.06;;;-2.24;nan
12468;BME280;57850;52.922;6.256;2022-12-18T02:15:51;102948.84;;;-2.04;nan
12468;BME280;57850;52.922;6.256;2022-12-18T02:18:24;102942.25;;;-2.17;nan
12468;BME280;57850;52.922;6.256;2022-12-18T02:20:55;102940.44;;;-2.02;nan
12468;BME280;57850;52.922;6.256;2022-12-18T02:23:41;102946.94;;;-2.08;nan
12468;BME280;57850;52.922;6.256;2022-12-18T02:26:18;102945.25;;;-2.26;nan
12468;BME280;57850;52.922;6.256;2022-12-18T02:28:51;102953.09;;;-2.39;nan
12468;BME280;57850;52.922;6.256;2022-12-18T02:31:21;102943.94;;;-2.18;nan
12468;BME280;57850;52.922;6.256;2022-12-18T02:33:53;102952.47;;;-2.51;nan
12468;BME280;57850;52.922;6.256;2022-12-18T02:36:21;102960.47;;;-2.45;nan
12468;BME280;57850;52.922;6.256;2022-12-18T02:38:50;102959.31;;;-2.34;nan
12468;BME280;57850;52.922;6.256;2022-12-18T02:41:20;102964.91;;;-2.41;nan
12468;BME280;57850;52.922;6.256;2022-12-18T02:43:52;102970.38;;;-2.67;nan
12468;BME280;57850;52.922;6.256;2022-12-18T02:46:29;102961.81;;;-2.51;nan
12468;BME280;57850;52.922;6.256;2022-12-18T02:49:05;102980.75;;;-2.64;nan
12468;BME280;57850;52.922;6.256;2022-12-18T02:51:37;102986.09;;;-2.76;nan
12468;BME280;57850;52.922;6.256;2022-12-18T02:54:09;102984.97;;;-2.81;nan
12468;BME280;57850;52.922;6.256;2022-12-18T02:56:42;102989.44;;;-2.93;nan
12468;BME280;57850;52.922;6.256;2022-12-18T02:59:14;102988.63;;;-2.76;nan
12468;BME280;57850;52.922;6.256;2022-12-18T03:01:49;102994.72;;;-2.74;nan
12468;BME280;57850;52.922;6.256;2022-12-18T03:04:22;102982.81;;;-2.89;nan
12468;BME280;57850;52.922;6.256;2022-12-18T03:06:55;102969.97;;;-2.91;nan
12468;BME280;57850;52.922;6.256;2022-12-18T03:09:29;102971.16;;;-3.00;nan
12468;BME280;57850;52.922;6.256;2022-12-18T03:12:02;102975.63;;;-2.96;nan
12468;BME280;57850;52.922;6.256;2022-12-18T03:14:54;102976.34;;;-3.15;nan
12468;BME280;57850;52.922;6.256;2022-12-18T03:17:26;102976.81;;;-3.06;nan
12468;BME280;57850;52.922;6.256;2022-12-18T03:19:56;102981.06;;;-2.90;nan
12468;BME280;57850;52.922;6.256;2022-12-18T03:22:27;102990.38;;;-3.07;nan
12468;BME280;57850;52.922;6.256;2022-12-18T03:24:56;102989.19;;;-3.13;nan
12468;BME280;57850;52.922;6.256;2022-12-18T03:27:27;102995.84;;;-3.01;nan
12468;BME280;57850;52.922;6.256;2022-12-18T03:30:01;103005.72;;;-2.91;nan
12468;BME280;57850;52.922;6.256;2022-12-18T03:32:35;103020.00;;;-3.10;nan
12468;BME280;57850;52.922;6.256;2022-12-18T03:35:05;103024.44;;;-3.06;nan
12468;BME280;57850;52.922;6.256;2022-12-18T03:37:34;103027.47;;;-3.13;nan
12468;BME280;57850;52.922;6.256;2022-12-18T03:40:01;103026.09;;;-3.07;nan
12468;BME280;57850;52.922;6.256;2022-12-18T03:42:32;103022.38;;;-3.13;nan
12468;BME280;57850;52.922;6.256;2022-12-18T03:45:08;103030.03;;;-2.97;nan
12468;BME280;57850;52.922;6.256;2022-12-18T03:47:39;103037.69;;;-3.13;nan
12468;BME280;57850;52.922;6.256;2022-12-18T03:50:11;103036.25;;;-3.08;nan
12468;BME280;57850;52.922;6.256;2022-12-18T03:52:43;103044.47;;;-3.14;nan
12468;BME280;57850;52.922;6.256;2022-12-18T03:55:12;103042.25;;;-3.22;nan
12468;BME280;57850;52.922;6.256;2022-12-18T03:57:42;103039.97;;;-3.18;nan
12468;BME280;57850;52.922;6.256;2022-12-18T04:00:12;103044.75;;;-3.24;nan
12468;BME280;57850;52.922;6.256;2022-12-18T04:02:43;103030.88;;;-3.13;nan
12468;BME280;57850;52.922;6.256;2022-12-18T04:05:12;103030.94;;;-3.28;nan
12468;BME280;57850;52.922;6.256;2022-12-18T04:07:40;103027.72;;;-3.09;nan
12468;BME280;57850;52.922;6.256;2022-12-18T04:10:08;103038.25;;;-3.34;nan
12468;BME280;57850;52.922;6.256;2022-12-18T04:12:38;103033.97;;;-3.49;nan
12468;BME280;57850;52.922;6.256;2022-12-18T04:15:07;103039.81;;;-3.21;nan
12468;BME280;57850;52.922;6.256;2022-12-18T04:17:34;103035.59;;;-3.20;nan
12468;BME280;57850;52.922;6.256;2022-12-18T04:20:01;103041.25;;;-3.26;nan
12468;BME280;57850;52.922;6.256;2022-12-18T04:22:28;103045.50;;;-3.10;nan
12468;BME280;57850;52.922;6.256;2022-12-18T04:24:54;103056.06;;;-3.19;nan
12468;BME280;57850;52.922;6.256;2022-12-18T04:27:21;103056.28;;;-3.31;nan
12468;BME280;57850;52.922;6.256;2022-12-18T04:29:48;103066.69;;;-3.42;nan
12468;BME280;57850;52.922;6.256;2022-12-18T04:32:16;103070.66;;;-3.33;nan
12468;BME280;57850;52.922;6.256;2022-12-18T04:34:43;103067.88;;;-3.21;nan
12468;BME280;57850;52.922;6.256;2022-12-18T04:37:10;103065.78;;;-3.13;nan
12468;BME280;57850;52.922;6.256;2022-12-18T04:39:36;103074.97;;;-3.01;nan
12468;BME280;57850;52.922;6.256;2022-12-18T04:42:03;103074.97;;;-3.01;nan
12468;BME280;57850;52.922;6.256;2022-12-18T04:44:29;103075.13;;;-2.98;nan
12468;BME280;57850;52.922;6.256;2022-12-18T04:46:56;103078.38;;;-3.00;nan
12468;BME280;57850;52.922;6.256;2022-12-18T04:49:24;103069.03;;;-2.85;nan
12468;BME280;57850;52.922;6.256;2022-12-18T04:51:50;103074.09;;;-3.01;nan
12468;BME280;57850;52.922;6.256;2022-12-18T04:54:18;103076.31;;;-3.22;nan
12468;BME280;57850;52.922;6.256;2022-12-18T04:56:45;103080.53;;;-3.22;nan
12468;BME280;57850;52.922;6.256;2022-12-18T04:59:11;103085.81;;;-3.05;nan
12468;BME280;57850;52.922;6.256;2022-12-18T05:01:38;103082.88;;;-2.96;nan
12468;BME280;57850;52.922;6.256;2022-12-18T05:04:04;103085.47;;;-3.11;nan
12468;BME280;57850;52.922;6.256;2022-12-18T05:06:32;103078.72;;;-3.25;nan
12468;BME280;57850;52.922;6.256;2022-12-18T05:08:59;103084.34;;;-3.31;nan
12468;BME280;57850;52.922;6.256;2022-12-18T05:11:25;103083.91;;;-3.38;nan
12468;BME280;57850;52.922;6.256;2022-12-18T05:13:52;103084.19;;;-3.34;nan
12468;BME280;57850;52.922;6.256;2022-12-18T05:16:18;103097.22;;;-3.29;nan
12468;BME280;57850;52.922;6.256;2022-12-18T05:18:45;103093.88;;;-3.43;nan
12468;BME280;57850;52.922;6.256;2022-12-18T05:21:12;103089.19;;;-3.20;nan
12468;BME280;57850;52.922;6.256;2022-12-18T05:23:39;103095.19;;;-3.20;nan
12468;BME280;57850;52.922;6.256;2022-12-18T05:26:14;103091.28;;;-3.13;nan
12468;BME280;57850;52.922;6.256;2022-12-18T05:28:41;103090.41;;;-3.29;nan
12468;BME280;57850;52.922;6.256;2022-12-18T05:31:08;103099.03;;;-3.12;nan
12468;BME280;57850;52.922;6.256;2022-12-18T05:33:35;103090.34;;;-3.30;nan
12468;BME280;57850;52.922;6.256;2022-12-18T05:36:03;103100.22;;;-3.36;nan
12468;BME280;57850;52.922;6.256;2022-12-18T05:38:32;103113.22;;;-3.17;nan
12468;BME280;57850;52.922;6.256;2022-12-18T05:41:00;103117.97;;;-3.38;nan
12468;BME280;57850;52.922;6.256;2022-12-18T05:43:26;103127.66;;;-3.47;nan
12468;BME280;57850;52.922;6.256;2022-12-18T05:45:54;103117.91;;;-3.39;nan
12468;BME280;57850;52.922;6.256;2022-12-18T05:48:22;103127.91;;;-3.57;nan
12468;BME280;57850;52.922;6.256;2022-12-18T05:50:49;103129.31;;;-3.62;nan
12468;BME280;57850;52.922;6.256;2022-12-18T05:53:17;103131.81;;;-3.49;nan
12468;BME280;57850;52.922;6.256;2022-12-18T05:55:44;103136.81;;;-3.36;nan
12468;BME280;57850;52.922;6.256;2022-12-18T05:58:13;103136.63;;;-3.53;nan
12468;BME280;57850;52.922;6.256;2022-12-18T06:00:41;103133.53;;;-3.62;nan
12468;BME280;57850;52.922;6.256;2022-12-18T06:03:09;103128.25;;;-3.65;nan
12468;BME280;57850;52.922;6.256;2022-12-18T06:05:36;103149.28;;;-3.40;nan
12468;BME280;57850;52.922;6.256;2022-12-18T06:08:03;103145.09;;;-3.54;nan
12468;BME280;57850;52.922;6.256;2022-12-18T06:10:30;103146.13;;;-3.51;nan
12468;BME280;57850;52.922;6.256;2022-12-18T06:12:57;103138.56;;;-3.49;nan
12468;BME280;57850;52.922;6.256;2022-12-18T06:15:25;103139.81;;;-3.57;nan
12468;BME280;57850;52.922;6.256;2022-12-18T06:17:52;103140.22;;;-3.35;nan
12468;BME280;57850;52.922;6.256;2022-12-18T06:20:18;103136.47;;;-3.42;nan
12468;BME280;57850;52.922;6.256;2022-12-18T06:22:46;103143.03;;;-3.31;nan
12468;BME280;57850;52.922;6.256;2022-12-18T06:25:12;103139.97;;;-3.40;nan
12468;BME280;57850;52.922;6.256;2022-12-18T06:27:39;103128.88;;;-3.40;nan
12468;BME280;57850;52.922;6.256;2022-12-18T06:30:06;103136.56;;;-3.55;nan
12468;BME280;57850;52.922;6.256;2022-12-18T06:32:35;103122.91;;;-3.55;nan
12468;BME280;57850;52.922;6.256;2022-12-18T06:35:01;103120.34;;;-3.55;nan
12468;BME280;57850;52.922;6.256;2022-12-18T06:37:30;103117.19;;;-3.51;nan
12468;BME280;57850;52.922;6.256;2022-12-18T06:39:56;103115.72;;;-3.48;nan
12468;BME280;57850;52.922;6.256;2022-12-18T06:42:23;103127.47;;;-3.35;nan
12468;BME280;57850;52.922;6.256;2022-12-18T06:44:50;103119.28;;;-3.44;nan
12468;BME280;57850;52.922;6.256;2022-12-18T06:47:17;103125.00;;;-3.04;nan
12468;BME280;57850;52.922;6.256;2022-12-18T06:49:46;103134.66;;;-2.99;nan
12468;BME280;57850;52.922;6.256;2022-12-18T06:52:13;103132.53;;;-3.06;nan
12468;BME280;57850;52.922;6.256;2022-12-18T06:54:39;103130.72;;;-2.78;nan
12468;BME280;57850;52.922;6.256;2022-12-18T06:57:06;103141.47;;;-2.83;nan
12468;BME280;57850;52.922;6.256;2022-12-18T06:59:32;103131.31;;;-2.98;nan
12468;BME280;57850;52.922;6.256;2022-12-18T07:01:59;103124.44;;;-2.99;nan
12468;BME280;57850;52.922;6.256;2022-12-18T07:04:27;103119.94;;;-2.72;nan
12468;BME280;57850;52.922;6.256;2022-12-18T07:06:55;103115.19;;;-2.97;nan
12468;BME280;57850;52.922;6.256;2022-12-18T07:09:22;103107.28;;;-3.01;nan
12468;BME280;57850;52.922;6.256;2022-12-18T07:11:49;103119.97;;;-2.56;nan
12468;BME280;57850;52.922;6.256;2022-12-18T07:14:16;103112.63;;;-2.97;nan
12468;BME280;57850;52.922;6.256;2022-12-18T07:16:43;103111.38;;;-2.89;nan
12468;BME280;57850;52.922;6.256;2022-12-18T07:19:09;103100.47;;;-2.86;nan
12468;BME280;57850;52.922;6.256;2022-12-18T07:21:36;103103.56;;;-2.76;nan
12468;BME280;57850;52.922;6.256;2022-12-18T07:24:05;103101.84;;;-2.91;nan
12468;BME280;57850;52.922;6.256;2022-12-18T07:26:31;103106.41;;;-3.02;nan
12468;BME280;57850;52.922;6.256;2022-12-18T07:28:58;103109.78;;;-2.87;nan
12468;BME280;57850;52.922;6.256;2022-12-18T07:31:25;103107.56;;;-2.81;nan
12468;BME280;57850;52.922;6.256;2022-12-18T07:33:52;103113.19;;;-2.55;nan
12468;BME280;57850;52.922;6.256;2022-12-18T07:36:19;103113.97;;;-2.73;nan
12468;BME280;57850;52.922;6.256;2022-12-18T07:38:47;103115.50;;;-2.91;nan
12468;BME280;57850;52.922;6.256;2022-12-18T07:41:17;103111.75;;;-2.97;nan
12468;BME280;57850;52.922;6.256;2022-12-18T07:43:44;103111.50;;;-3.02;nan
12468;BME280;57850;52.922;6.256;2022-12-18T07:46:11;103100.28;;;-3.20;nan
12468;BME280;57850;52.922;6.256;2022-12-18T07:48:39;103109.63;;;-2.90;nan
12468;BME280;57850;52.922;6.256;2022-12-18T07:51:07;103114.22;;;-2.99;nan
12468;BME280;57850;52.922;6.256;2022-12-18T07:53:34;103109.16;;;-3.28;nan
12468;BME280;57850;52.922;6.256;2022-12-18T07:56:04;103110.50;;;-3.20;nan
12468;BME280;57850;52.922;6.256;2022-12-18T07:58:33;103110.50;;;-3.20;nan
12468;BME280;57850;52.922;6.256;2022-12-18T08:01:03;103106.81;;;-2.94;nan
12468;BME280;57850;52.922;6.256;2022-12-18T08:03:29;103099.78;;;-2.98;nan
12468;BME280;57850;52.922;6.256;2022-12-18T08:05:59;103094.09;;;-3.09;nan
12468;BME280;57850;52.922;6.256;2022-12-18T08:08:26;103098.97;;;-2.97;nan
12468;BME280;57850;52.922;6.256;2022-12-18T08:10:52;103105.28;;;-2.91;nan
12468;BME280;57850;52.922;6.256;2022-12-18T08:13:19;103100.56;;;-2.68;nan
12468;BME280;57850;52.922;6.256;2022-12-18T08:15:55;103087.91;;;-2.82;nan
12468;BME280;57850;52.922;6.256;2022-12-18T08:18:22;103085.97;;;-3.02;nan
12468;BME280;57850;52.922;6.256;2022-12-18T08:20:48;103091.53;;;-2.78;nan
12468;BME280;57850;52.922;6.256;2022-12-18T08:23:15;103092.25;;;-2.81;nan
12468;BME280;57850;52.922;6.256;2022-12-18T08:25:42;103096.63;;;-2.78;nan
12468;BME280;57850;52.922;6.256;2022-12-18T08:28:09;103105.94;;;-2.48;nan
12468;BME280;57850;52.922;6.256;2022-12-18T08:30:35;103099.66;;;-2.69;nan
12468;BME280;57850;52.922;6.256;2022-12-18T08:33:03;103097.38;;;-2.64;nan
12468;BME280;57850;52.922;6.256;2022-12-18T08:35:30;103086.69;;;-2.74;nan
12468;BME280;57850;52.922;6.256;2022-12-18T08:37:56;103086.88;;;-2.38;nan
12468;BME280;57850;52.922;6.256;2022-12-18T08:40:23;103093.00;;;-2.51;nan
12468;BME280;57850;52.922;6.256;2022-12-18T08:42:49;103097.31;;;-2.50;nan
12468;BME280;57850;52.922;6.256;2022-12-18T08:45:33;103109.00;;;-2.23;nan
12468;BME280;57850;52.922;6.256;2022-12-18T08:48:00;103116.72;;;-2.21;nan
12468;BME280;57850;52.922;6.256;2022-12-18T08:50:28;103116.72;;;-1.89;nan
12468;BME280;57850;52.922;6.256;2022-12-18T08:52:54;103113.75;;;-1.96;nan
12468;BME280;57850;52.922;6.256;2022-12-18T08:55:21;103118.78;;;-1.82;nan
12468;BME280;57850;52.922;6.256;2022-12-18T08:57:48;103118.25;;;-1.58;nan
12468;BME280;57850;52.922;6.256;2022-12-18T09:00:15;103113.53;;;-1.51;nan
12468;BME280;57850;52.922;6.256;2022-12-18T09:02:42;103122.78;;;-1.53;nan
12468;BME280;57850;52.922;6.256;2022-12-18T09:05:09;103131.06;;;-1.41;nan
12468;BME280;57850;52.922;6.256;2022-12-18T09:07:37;103139.63;;;-1.40;nan
12468;BME280;57850;52.922;6.256;2022-12-18T09:10:04;103138.03;;;-1.03;nan
12468;BME280;57850;52.922;6.256;2022-12-18T09:12:31;103140.53;;;-0.87;nan
12468;BME280;57850;52.922;6.256;2022-12-18T09:14:57;103152.22;;;-0.57;nan
12468;BME280;57850;52.922;6.256;2022-12-18T09:17:24;103144.78;;;-1.05;nan
12468;BME280;57850;52.922;6.256;2022-12-18T09:19:51;103159.50;;;-0.29;nan
12468;BME280;57850;52.922;6.256;2022-12-18T09:22:17;103160.50;;;-0.06;nan
12468;BME280;57850;52.922;6.256;2022-12-18T09:24:45;103163.53;;;0.24;nan
12468;BME280;57850;52.922;6.256;2022-12-18T09:27:12;103178.31;;;0.69;nan
12468;BME280;57850;52.922;6.256;2022-12-18T09:29:39;103178.50;;;0.74;nan
12468;BME280;57850;52.922;6.256;2022-12-18T09:32:06;103181.22;;;0.77;nan
12468;BME280;57850;52.922;6.256;2022-12-18T09:34:32;103183.56;;;0.72;nan
12468;BME280;57850;52.922;6.256;2022-12-18T09:36:59;103186.34;;;0.77;nan
12468;BME280;57850;52.922;6.256;2022-12-18T09:39:25;103191.84;;;0.86;nan
12468;BME280;57850;52.922;6.256;2022-12-18T09:41:54;103187.81;;;0.51;nan
12468;BME280;57850;52.922;6.256;2022-12-18T09:44:27;103183.78;;;0.56;nan
12468;BME280;57850;52.922;6.256;2022-12-18T09:47:03;103191.97;;;0.89;nan
12468;BME280;57850;52.922;6.256;2022-12-18T09:49:38;103199.66;;;0.87;nan
12468;BME280;57850;52.922;6.256;2022-12-18T09:52:13;103185.78;;;0.84;nan
12468;BME280;57850;52.922;6.256;2022-12-18T09:54:41;103181.41;;;1.02;nan
12468;BME280;57850;52.922;6.256;2022-12-18T09:57:13;103182.38;;;1.48;nan
12468;BME280;57850;52.922;6.256;2022-12-18T09:59:42;103180.78;;;1.96;nan
12468;BME280;57850;52.922;6.256;2022-12-18T10:02:15;103198.38;;;2.57;nan
12468;BME280;57850;52.922;6.256;2022-12-18T10:04:43;103204.59;;;2.87;nan
12468;BME280;57850;52.922;6.256;2022-12-18T10:07:17;103160.50;;;2.05;nan
12468;BME280;57850;52.922;6.256;2022-12-18T10:09:53;103162.75;;;2.44;nan
12468;BME280;57850;52.922;6.256;2022-12-18T10:12:30;103155.72;;;2.40;nan
12468;BME280;57850;52.922;6.256;2022-12-18T10:15:03;103153.13;;;2.14;nan
12468;BME280;57850;52.922;6.256;2022-12-18T10:17:38;103147.25;;;2.19;nan
12468;BME280;57850;52.922;6.256;2022-12-18T10:20:13;103148.19;;;2.21;nan
12468;BME280;57850;52.922;6.256;2022-12-18T10:22:50;103142.28;;;1.99;nan
12468;BME280;57850;52.922;6.256;2022-12-18T10:25:23;103145.56;;;2.19;nan
12468;BME280;57850;52.922;6.256;2022-12-18T10:27:55;103140.63;;;2.25;nan
12468;BME280;57850;52.922;6.256;2022-12-18T10:30:25;103128.16;;;2.12;nan
12468;BME280;57850;52.922;6.256;2022-12-18T10:32:52;103127.75;;;2.25;nan
12468;BME280;57850;52.922;6.256;2022-12-18T10:35:21;103098.63;;;1.79;nan
12468;BME280;57850;52.922;6.256;2022-12-18T10:38:07;103102.38;;;1.88;nan
12468;BME280;57850;52.922;6.256;2022-12-18T10:40:52;103102.34;;;1.87;nan
12468;BME280;57850;52.922;6.256;2022-12-18T10:43:25;103099.19;;;1.48;nan
12468;BME280;57850;52.922;6.256;2022-12-18T10:46:02;103120.16;;;1.81;nan
12468;BME280;57850;52.922;6.256;2022-12-18T10:48:30;103106.47;;;1.36;nan
12468;BME280;57850;52.922;6.256;2022-12-18T10:50:57;103099.88;;;1.90;nan
12468;BME280;57850;52.922;6.256;2022-12-18T10:53:25;103088.22;;;1.52;nan
12468;BME280;57850;52.922;6.256;2022-12-18T10:55:53;103117.13;;;2.16;nan
12468;BME280;57850;52.922;6.256;2022-12-18T10:58:24;103108.19;;;1.83;nan
12468;BME280;57850;52.922;6.256;2022-12-18T11:01:06;103105.63;;;1.83;nan
12468;BME280;57850;52.922;6.256;2022-12-18T11:03:35;103099.47;;;1.78;nan
12468;BME280;57850;52.922;6.256;2022-12-18T11:06:07;103101.38;;;1.83;nan
12468;BME280;57850;52.922;6.256;2022-12-18T11:08:34;103111.00;;;2.12;nan
12468;BME280;57850;52.922;6.256;2022-12-18T11:11:02;103103.53;;;2.20;nan
12468;BME280;57850;52.922;6.256;2022-12-18T11:13:31;103102.28;;;2.09;nan
12468;BME280;57850;52.922;6.256;2022-12-18T11:15:58;103110.78;;;2.06;nan
12468;BME280;57850;52.922;6.256;2022-12-18T11:18:27;103107.47;;;2.10;nan
12468;BME280;57850;52.922;6.256;2022-12-18T11:20:56;103102.84;;;2.26;nan
12468;BME280;57850;52.922;6.256;2022-12-18T11:23:24;103101.34;;;2.32;nan
12468;BME280;57850;52.922;6.256;2022-12-18T11:25:53;103088.84;;;2.17;nan
12468;BME280;57850;52.922;6.256;2022-12-18T11:28:46;103075.94;;;2.16;nan
12468;BME280;57850;52.922;6.256;2022-12-18T11:31:24;103094.78;;;2.40;nan
12468;BME280;57850;52.922;6.256;2022-12-18T11:34:04;103095.38;;;2.58;nan
12468;BME280;57850;52.922;6.256;2022-12-18T11:36:38;103096.97;;;2.30;nan
12468;BME280;57850;52.922;6.256;2022-12-18T11:39:12;103096.69;;;2.46;nan
12468;BME280;57850;52.922;6.256;2022-12-18T11:41:46;103090.28;;;2.60;nan
12468;BME280;57850;52.922;6.256;2022-12-18T11:44:40;103082.00;;;2.43;nan
12468;BME280;57850;52.922;6.256;2022-12-18T11:47:15;103075.97;;;2.43;nan
12468;BME280;57850;52.922;6.256;2022-12-18T11:49:49;103073.22;;;2.38;nan
12468;BME280;57850;52.922;6.256;2022-12-18T11:52:19;103070.91;;;2.19;nan
12468;BME280;57850;52.922;6.256;2022-12-18T11:54:51;103065.94;;;2.25;nan
12468;BME280;57850;52.922;6.256;2022-12-18T11:57:26;103058.22;;;2.00;nan
12468;BME280;57850;52.922;6.256;2022-12-18T12:00:02;103054.47;;;2.42;nan
12468;BME280;57850;52.922;6.256;2022-12-18T12:02:46;103041.53;;;2.14;nan
12468;BME280;57850;52.922;6.256;2022-12-18T12:05:29;103033.59;;;2.33;nan
12468;BME280;57850;52.922;6.256;2022-12-18T12:08:09;103032.09;;;2.40;nan
12468;BME280;57850;52.922;6.256;2022-12-18T12:10:48;103025.47;;;2.21;nan
12468;BME280;57850;52.922;6.256;2022-12-18T12:13:29;103007.31;;;2.43;nan
12468;BME280;57850;52.922;6.256;2022-12-18T12:16:12;103001.44;;;2.47;nan
12468;BME280;57850;52.922;6.256;2022-12-18T12:18:50;102987.16;;;2.05;nan
12468;BME280;57850;52.922;6.256;2022-12-18T12:21:27;102988.75;;;2.53;nan
12468;BME280;57850;52.922;6.256;2022-12-18T12:23:59;102978.63;;;2.59;nan
12468;BME280;57850;52.922;6.256;2022-12-18T12:26:33;102972.03;;;2.41;nan
12468;BME280;57850;52.922;6.256;2022-12-18T12:29:13;102986.44;;;2.62;nan
12468;BME280;57850;52.922;6.256;2022-12-18T12:31:56;102981.31;;;2.64;nan
12468;BME280;57850;52.922;6.256;2022-12-18T12:34:32;102981.94;;;2.84;nan
12468;BME280;57850;52.922;6.256;2022-12-18T12:37:13;102976.13;;;2.62;nan
12468;BME280;57850;52.922;6.256;2022-12-18T12:39:44;102971.28;;;2.73;nan
12468;BME280;57850;52.922;6.256;2022-12-18T12:42:16;102968.31;;;2.59;nan
12468;BME280;57850;52.922;6.256;2022-12-18T12:45:06;102964.00;;;2.88;nan
12468;BME280;57850;52.922;6.256;2022-12-18T12:47:38;102962.97;;;2.82;nan
12468;BME280;57850;52.922;6.256;2022-12-18T12:50:14;102951.53;;;2.74;nan
12468;BME280;57850;52.922;6.256;2022-12-18T12:52:45;102947.06;;;2.96;nan
12468;BME280;57850;52.922;6.256;2022-12-18T12:55:17;102956.84;;;3.08;nan
12468;BME280;57850;52.922;6.256;2022-12-18T12:57:47;102934.88;;;2.91;nan
12468;BME280;57850;52.922;6.256;2022-12-18T13:00:18;102943.63;;;2.67;nan
12468;BME280;57850;52.922;6.256;2022-12-18T13:02:51;102949.66;;;2.96;nan
12468;BME280;57850;52.922;6.256;2022-12-18T13:05:25;102935.38;;;2.51;nan
12468;BME280;57850;52.922;6.256;2022-12-18T13:07:57;102948.66;;;2.63;nan
12468;BME280;57850;52.922;6.256;2022-12-18T13:10:35;102941.50;;;2.83;nan
12468;BME280;57850;52.922;6.256;2022-12-18T13:13:04;102926.06;;;2.54;nan
12468;BME280;57850;52.922;6.256;2022-12-18T13:15:34;102936.91;;;2.72;nan
12468;BME280;57850;52.922;6.256;2022-12-18T13:18:19;102936.41;;;2.84;nan
12468;BME280;57850;52.922;6.256;2022-12-18T13:20:48;102942.47;;;2.86;nan
12468;BME280;57850;52.922;6.256;2022-12-18T13:23:26;102918.97;;;2.19;nan
12468;BME280;57850;52.922;6.256;2022-12-18T13:25:53;102938.69;;;3.03;nan
12468;BME280;57850;52.922;6.256;2022-12-18T13:28:21;102921.41;;;2.71;nan
12468;BME280;57850;52.922;6.256;2022-12-18T13:30:54;102919.09;;;3.10;nan